createdAt,value
2023-08-30T00:00:27.136Z,98875.09
2023-08-30T00:02:55.845Z,98890.00
2023-08-30T00:05:26.809Z,98876.59
2023-08-30T00:07:56.458Z,98853.09
2023-08-30T00:10:25.361Z,98886.13
2023-08-30T00:12:54.136Z,98884.28
2023-08-30T00:15:22.896Z,98868.72
2023-08-30T00:17:53.923Z,98872.41
2023-08-30T00:20:23.709Z,98859.66
2023-08-30T00:22:52.953Z,98852.63
2023-08-30T00:25:22.711Z,98861.66
2023-08-30T00:27:51.395Z,98859.00
2023-08-30T00:30:20.663Z,98842.38
2023-08-30T00:32:49.574Z,98855.63
2023-08-30T00:35:18.778Z,98832.84
2023-08-30T00:37:47.714Z,98832.84
2023-08-30T00:40:16.453Z,98853.44
2023-08-30T00:42:46.116Z,98836.53
2023-08-30T00:45:15.316Z,98850.78
2023-08-30T00:47:44.453Z,98833.00
2023-08-30T00:50:14.611Z,98836.16
2023-08-30T00:52:43.904Z,98822.94
2023-08-30T00:55:13.233Z,98817.03
2023-08-30T00:57:42.295Z,98843.81
2023-08-30T01:00:13.138Z,98828.91
2023-08-30T01:02:42.872Z,98834.75
2023-08-30T01:05:11.974Z,98807.97
2023-08-30T01:07:40.914Z,98844.66
2023-08-30T01:10:10.064Z,98830.19
2023-08-30T01:12:51.537Z,98809.59
2023-08-30T01:15:22.914Z,98834.56
2023-08-30T01:17:54.388Z,98810.13
2023-08-30T01:20:26.131Z,98814.47
2023-08-30T01:23:12.436Z,98834.41
2023-08-30T01:26:22.137Z,98820.50
2023-08-30T01:28:53.823Z,98812.59
2023-08-30T01:31:25.436Z,98784.31
2023-08-30T01:33:54.311Z,98789.22
2023-08-30T01:36:24.226Z,98788.84
2023-08-30T01:38:54.811Z,98792.69
2023-08-30T01:41:25.072Z,98797.84
2023-08-30T01:43:55.475Z,98806.56
2023-08-30T01:46:26.336Z,98781.50
2023-08-30T01:48:56.691Z,98788.50
2023-08-30T01:51:26.712Z,98765.78
2023-08-30T01:53:58.156Z,98796.69
2023-08-30T01:56:27.032Z,98808.91
2023-08-30T01:58:55.890Z,98801.53
2023-08-30T02:01:24.540Z,98766.72
2023-08-30T02:03:54.492Z,98818.56
2023-08-30T02:06:34.673Z,98812.53
2023-08-30T02:09:28.633Z,98790.09
2023-08-30T02:11:59.331Z,98752.13
2023-08-30T02:14:31.987Z,98805.59
2023-08-30T02:17:00.917Z,98757.47
2023-08-30T02:19:29.938Z,98821.25
2023-08-30T02:21:58.762Z,98797.28
2023-08-30T02:24:27.557Z,98813.75
2023-08-30T02:26:59.117Z,98796.25
2023-08-30T02:29:27.758Z,98823.06
2023-08-30T02:31:56.503Z,98793.94
2023-08-30T02:34:25.251Z,98809.03
2023-08-30T02:36:54.629Z,98756.97
2023-08-30T02:39:23.731Z,98784.56
2023-08-30T02:41:52.513Z,98796.25
2023-08-30T02:44:22.436Z,98790.47
2023-08-30T02:46:51.237Z,98774.38
2023-08-30T02:49:19.958Z,98779.28
2023-08-30T02:51:48.684Z,98784.88
2023-08-30T02:54:17.377Z,98757.41
2023-08-30T02:56:46.576Z,98755.53
2023-08-30T02:59:15.134Z,98766.03
2023-08-30T03:01:45.957Z,98744.69
2023-08-30T03:04:17.223Z,98757.66
2023-08-30T03:06:46.194Z,98764.38
2023-08-30T03:09:16.295Z,98743.00
2023-08-30T03:11:46.778Z,98743.28
2023-08-30T03:14:17.418Z,98713.31
2023-08-30T03:16:48.497Z,98764.00
2023-08-30T03:19:19.457Z,98751.47
2023-08-30T03:21:48.394Z,98747.75
2023-08-30T03:24:18.333Z,98750.63
2023-08-30T03:26:47.183Z,98740.31
2023-08-30T03:29:16.135Z,98725.31
2023-08-30T03:31:47.874Z,98724.75
2023-08-30T03:34:16.677Z,98716.66
2023-08-30T03:36:46.521Z,98713.59
2023-08-30T03:39:16.539Z,98714.38
2023-08-30T03:41:45.035Z,98722.13
2023-08-30T03:44:13.795Z,98726.47
2023-08-30T03:46:42.629Z,98714.28
2023-08-30T03:49:11.376Z,98723.97
2023-08-30T03:51:40.507Z,98728.28
2023-08-30T03:54:10.335Z,98724.94
2023-08-30T03:56:38.989Z,98685.75
2023-08-30T03:59:07.776Z,98735.00
2023-08-30T04:01:36.599Z,98733.78
2023-08-30T04:04:06.698Z,98725.19
2023-08-30T04:06:35.604Z,98700.69
2023-08-30T04:09:06.374Z,98713.00
2023-08-30T04:11:35.427Z,98724.72
2023-08-30T04:14:04.315Z,98721.66
2023-08-30T04:16:33.143Z,98663.03
2023-08-30T04:19:01.932Z,98719.72
2023-08-30T04:21:31.592Z,98717.03
2023-08-30T04:24:00.543Z,98721.63
2023-08-30T04:26:29.281Z,98736.38
2023-08-30T04:28:58.749Z,98737.56
2023-08-30T04:31:27.595Z,98689.19
2023-08-30T04:33:57.254Z,98739.50
2023-08-30T04:36:25.915Z,98746.34
2023-08-30T04:39:02.432Z,98697.06
2023-08-30T04:41:35.452Z,98725.25
2023-08-30T04:44:04.303Z,98730.44
2023-08-30T04:46:33.034Z,98726.72
2023-08-30T04:49:01.752Z,98723.50
2023-08-30T04:51:30.353Z,98710.72
2023-08-30T04:53:59.691Z,98766.28
2023-08-30T04:56:28.732Z,98756.66
2023-08-30T04:58:59.074Z,98787.66
2023-08-30T05:01:28.021Z,98734.97
2023-08-30T05:03:59.533Z,98790.34
2023-08-30T05:06:28.953Z,98782.81
2023-08-30T05:08:57.953Z,98775.34
2023-08-30T05:11:26.751Z,98782.25
2023-08-30T05:13:56.084Z,98792.75
2023-08-30T05:16:25.269Z,98777.22
2023-08-30T05:18:54.855Z,98771.03
2023-08-30T05:21:23.678Z,98767.34
2023-08-30T05:23:52.944Z,98788.97
2023-08-30T05:26:21.914Z,98792.31
2023-08-30T05:28:50.633Z,98810.66
2023-08-30T05:31:20.146Z,98809.03
2023-08-30T05:34:15.056Z,98768.13
2023-08-30T05:36:43.870Z,98787.22
2023-08-30T05:39:36.854Z,98788.00
2023-08-30T05:42:06.022Z,98773.88
2023-08-30T05:44:34.810Z,98801.94
2023-08-30T05:47:03.633Z,98793.34
2023-08-30T05:49:32.492Z,98753.41
2023-08-30T05:52:01.266Z,98809.84
2023-08-30T05:54:33.307Z,98781.28
2023-08-30T05:57:02.515Z,98786.28
2023-08-30T05:59:31.517Z,98778.16
2023-08-30T06:02:00.190Z,98763.13
2023-08-30T06:04:29.321Z,98772.13
2023-08-30T06:06:58.096Z,98768.53
2023-08-30T06:09:27.333Z,98771.22
2023-08-30T06:11:57.354Z,98767.13
2023-08-30T06:14:31.434Z,98740.84
2023-08-30T06:17:00.357Z,98754.28
2023-08-30T06:19:29.220Z,98733.09
2023-08-30T06:21:57.954Z,98726.44
2023-08-30T06:24:26.775Z,98711.06
2023-08-30T06:26:55.398Z,98713.38
2023-08-30T06:29:24.123Z,98713.53
2023-08-30T06:31:53.055Z,98721.50
2023-08-30T06:34:21.836Z,98720.06
2023-08-30T06:36:50.795Z,98698.44
2023-08-30T06:39:20.442Z,98694.28
2023-08-30T06:41:49.492Z,98688.38
2023-08-30T06:44:18.914Z,98665.47
2023-08-30T06:46:47.758Z,98689.19
2023-08-30T06:49:16.493Z,98694.44
2023-08-30T06:51:45.175Z,98670.56
2023-08-30T06:54:14.037Z,98676.00
2023-08-30T06:56:42.738Z,98663.94
2023-08-30T06:59:11.695Z,98653.16
2023-08-30T07:01:40.431Z,98674.78
2023-08-30T07:04:12.072Z,98678.09
2023-08-30T07:06:40.824Z,98670.84
2023-08-30T07:09:09.650Z,98661.75
2023-08-30T07:11:38.453Z,98662.38
2023-08-30T07:14:07.176Z,98673.91
2023-08-30T07:16:35.879Z,98661.47
2023-08-30T07:19:04.816Z,98659.81
2023-08-30T07:21:34.714Z,98661.69
2023-08-30T07:24:03.689Z,98644.44
2023-08-30T07:26:32.312Z,98646.53
2023-08-30T07:29:01.044Z,98625.94
2023-08-30T07:31:29.899Z,98640.50
2023-08-30T07:34:00.056Z,98630.94
2023-08-30T07:36:45.105Z,98643.00
2023-08-30T07:39:15.781Z,98634.50
2023-08-30T07:41:44.618Z,98597.69
2023-08-30T07:44:13.160Z,98636.63
2023-08-30T07:46:42.026Z,98636.81
2023-08-30T07:49:10.810Z,98644.72
2023-08-30T07:51:39.688Z,98634.34
2023-08-30T07:54:11.071Z,98645.38
2023-08-30T07:56:39.812Z,98653.47
2023-08-30T07:59:08.423Z,98644.75
2023-08-30T08:01:37.279Z,98610.47
2023-08-30T08:04:08.112Z,98619.00
2023-08-30T08:06:38.104Z,98606.09
2023-08-30T08:09:09.314Z,98599.25
2023-08-30T08:11:38.215Z,98583.44
2023-08-30T08:14:07.007Z,98600.69
2023-08-30T08:16:36.155Z,98562.47
2023-08-30T08:19:04.931Z,98598.22
2023-08-30T08:21:33.870Z,98602.41
2023-08-30T08:24:03.593Z,98619.84
2023-08-30T08:26:32.386Z,98619.88
2023-08-30T08:29:01.777Z,98607.19
2023-08-30T08:31:30.613Z,98592.44
2023-08-30T08:34:14.173Z,98586.16
2023-08-30T08:36:44.449Z,98584.69
2023-08-30T08:39:15.813Z,98596.13
2023-08-30T08:41:46.219Z,98579.91
2023-08-30T08:44:18.912Z,98594.88
2023-08-30T08:46:49.929Z,98575.34
2023-08-30T08:49:19.478Z,98574.94
2023-08-30T08:51:48.476Z,98578.25
2023-08-30T08:54:20.414Z,98536.34
2023-08-30T08:56:52.352Z,98587.22
2023-08-30T08:59:22.791Z,98568.13
2023-08-30T09:01:51.866Z,98549.00
2023-08-30T09:04:23.956Z,98590.59
2023-08-30T09:06:52.634Z,98593.28
2023-08-30T09:09:25.172Z,98577.47
2023-08-30T09:11:53.952Z,98578.09
2023-08-30T09:14:22.961Z,98587.22
2023-08-30T09:17:02.785Z,98589.09
2023-08-30T09:19:32.262Z,98604.66
2023-08-30T09:22:02.506Z,98616.72
2023-08-30T09:24:41.483Z,98613.78
2023-08-30T09:27:10.553Z,98610.69
2023-08-30T09:29:39.753Z,98598.63
2023-08-30T09:32:10.879Z,98628.53
2023-08-30T09:34:48.826Z,98633.44
2023-08-30T09:37:24.897Z,98630.13
2023-08-30T09:39:54.314Z,98641.75
2023-08-30T09:42:24.116Z,98641.25
2023-08-30T09:44:53.211Z,98629.53
2023-08-30T09:47:22.319Z,98650.84
2023-08-30T09:49:53.686Z,98668.88
2023-08-30T09:52:25.516Z,98666.28
2023-08-30T09:54:55.467Z,98672.03
2023-08-30T09:57:24.923Z,98639.00
2023-08-30T09:59:53.616Z,98644.06
2023-08-30T10:02:23.254Z,98687.84
2023-08-30T10:04:53.068Z,98716.19
2023-08-30T10:07:23.513Z,98713.75
2023-08-30T10:10:09.147Z,98704.00
2023-08-30T10:12:40.991Z,98704.13
2023-08-30T10:15:10.264Z,98720.38
2023-08-30T10:17:43.432Z,98714.81
2023-08-30T10:20:14.030Z,98695.47
2023-08-30T10:22:45.766Z,98718.66
2023-08-30T10:25:21.166Z,98713.94
2023-08-30T10:27:51.873Z,98726.44
2023-08-30T10:30:23.394Z,98743.28
2023-08-30T10:32:52.369Z,98738.38
2023-08-30T10:35:21.550Z,98718.44
2023-08-30T10:37:57.756Z,98732.56
2023-08-30T10:40:26.746Z,98737.34
2023-08-30T10:43:05.875Z,98708.34
2023-08-30T10:45:37.735Z,98709.09
2023-08-30T10:48:06.929Z,98717.00
2023-08-30T10:50:36.663Z,98727.94
2023-08-30T10:53:14.842Z,98729.66
2023-08-30T10:55:43.557Z,98756.22
2023-08-30T10:58:18.950Z,98750.94
2023-08-30T11:00:52.114Z,98768.28
2023-08-30T11:03:31.380Z,98773.28
2023-08-30T11:06:05.927Z,98761.44
2023-08-30T11:08:37.135Z,98770.97
2023-08-30T11:11:12.595Z,98762.13
2023-08-30T11:13:41.432Z,98771.88
2023-08-30T11:16:11.338Z,98786.91
2023-08-30T11:18:44.252Z,98814.44
2023-08-30T11:21:15.731Z,98820.50
2023-08-30T11:23:44.512Z,98811.78
2023-08-30T11:26:14.515Z,98788.41
2023-08-30T11:28:47.952Z,98825.75
2023-08-30T11:31:24.454Z,98804.63
2023-08-30T11:33:55.090Z,98750.91
2023-08-30T11:36:30.167Z,98797.41
2023-08-30T11:38:59.860Z,98772.31
2023-08-30T11:41:29.451Z,98773.66
2023-08-30T11:44:00.818Z,98770.47
2023-08-30T11:46:29.637Z,98762.28
2023-08-30T11:48:58.377Z,98771.66
2023-08-30T11:51:27.472Z,98756.75
2023-08-30T11:53:56.290Z,98766.63
2023-08-30T11:56:26.092Z,98765.28
2023-08-30T11:58:54.830Z,98774.34
2023-08-30T12:01:24.215Z,98722.44
2023-08-30T12:03:52.946Z,98759.28
2023-08-30T12:06:25.105Z,98756.25
2023-08-30T12:09:00.647Z,98756.78
2023-08-30T12:11:31.032Z,98753.44
2023-08-30T12:14:04.964Z,98747.22
2023-08-30T12:16:36.475Z,98755.59
2023-08-30T12:19:17.014Z,98722.44
2023-08-30T12:21:45.870Z,98752.72
2023-08-30T12:24:14.709Z,98760.94
2023-08-30T12:26:46.031Z,98707.03
2023-08-30T12:29:14.775Z,98761.94
2023-08-30T12:31:43.492Z,98757.94
2023-08-30T12:34:12.252Z,98770.97
2023-08-30T12:36:41.394Z,98731.31
2023-08-30T12:39:12.194Z,98728.97
2023-08-30T12:41:43.613Z,98720.13
2023-08-30T12:44:12.873Z,98710.22
2023-08-30T12:46:41.973Z,98688.81
2023-08-30T12:49:10.794Z,98677.59
2023-08-30T12:51:39.680Z,98638.59
2023-08-30T12:54:08.547Z,98652.34
2023-08-30T12:56:37.247Z,98675.56
2023-08-30T12:59:06.573Z,98651.28
2023-08-30T13:01:35.506Z,98657.00
2023-08-30T13:04:05.413Z,98670.72
2023-08-30T13:06:34.138Z,98669.53
2023-08-30T13:09:03.028Z,98657.81
2023-08-30T13:11:34.142Z,98636.34
2023-08-30T13:14:03.536Z,98631.38
2023-08-30T13:16:32.319Z,98581.16
2023-08-30T13:19:01.152Z,98633.00
2023-08-30T13:21:40.558Z,98616.78
2023-08-30T13:24:12.554Z,98596.91
2023-08-30T13:26:41.180Z,98595.25
2023-08-30T13:29:10.053Z,98623.81
2023-08-30T13:31:39.236Z,98601.59
2023-08-30T13:34:07.853Z,98563.81
2023-08-30T13:36:38.475Z,98562.00
2023-08-30T13:39:07.303Z,98549.13
2023-08-30T13:41:37.754Z,98549.63
2023-08-30T13:44:06.931Z,98550.97
2023-08-30T13:46:36.454Z,98565.53
2023-08-30T13:49:05.276Z,98553.31
2023-08-30T13:51:34.852Z,98559.38
2023-08-30T13:54:05.176Z,98560.38
2023-08-30T13:56:35.331Z,98543.84
2023-08-30T13:59:04.175Z,98542.69
2023-08-30T14:01:33.355Z,98536.69
2023-08-30T14:04:02.874Z,98539.19
2023-08-30T14:06:34.459Z,98538.50
2023-08-30T14:09:06.232Z,98529.66
2023-08-30T14:11:36.733Z,98542.16
2023-08-30T14:14:05.505Z,98541.50
2023-08-30T14:16:35.272Z,98552.22
2023-08-30T14:19:07.275Z,98541.03
2023-08-30T14:21:36.495Z,98575.28
2023-08-30T14:24:05.577Z,98574.63
2023-08-30T14:26:34.999Z,98552.03
2023-08-30T14:29:04.119Z,98574.13
2023-08-30T14:31:33.340Z,98575.78
2023-08-30T14:34:02.303Z,98574.28
2023-08-30T14:36:32.136Z,98556.91
2023-08-30T14:39:01.032Z,98575.28
2023-08-30T14:41:34.193Z,98572.09
2023-08-30T14:44:05.956Z,98531.81
2023-08-30T14:46:35.275Z,98571.28
2023-08-30T14:49:04.259Z,98580.31
2023-08-30T14:51:33.516Z,98539.47
2023-08-30T14:54:02.805Z,98587.63
2023-08-30T14:56:32.451Z,98577.44
2023-08-30T14:59:01.754Z,98567.91
2023-08-30T15:01:30.881Z,98580.81
2023-08-30T15:04:10.171Z,98571.28
2023-08-30T15:06:41.907Z,98574.78
2023-08-30T15:09:13.996Z,98570.25
2023-08-30T15:11:42.897Z,98556.91
2023-08-30T15:14:12.067Z,98542.53
2023-08-30T15:16:41.252Z,98570.94
2023-08-30T15:19:10.603Z,98554.22
2023-08-30T15:24:18.096Z,98571.28
2023-08-30T15:26:47.455Z,98570.75
2023-08-30T15:29:16.335Z,98569.59
2023-08-30T15:31:47.280Z,98575.59
2023-08-30T15:34:16.330Z,98601.00
2023-08-30T15:36:45.242Z,98597.66
2023-08-30T15:39:18.835Z,98605.19
2023-08-30T15:41:50.730Z,98587.25
2023-08-30T15:44:19.594Z,98619.22
2023-08-30T15:46:49.234Z,98626.88
2023-08-30T15:49:18.513Z,98624.19
2023-08-30T15:51:47.879Z,98586.38
2023-08-30T15:54:19.072Z,98619.47
2023-08-30T15:56:48.730Z,98617.97
2023-08-30T15:59:17.890Z,98571.28
2023-08-30T16:01:47.334Z,98639.03
2023-08-30T16:04:16.631Z,98640.66
2023-08-30T16:06:46.639Z,98652.91
2023-08-30T16:09:16.470Z,98672.94
2023-08-30T16:11:50.753Z,98666.09
2023-08-30T16:14:19.613Z,98658.25
2023-08-30T16:16:51.415Z,98592.53
2023-08-30T16:19:21.113Z,98653.41
2023-08-30T16:21:54.061Z,98622.97
2023-08-30T16:24:27.968Z,98643.03
2023-08-30T16:27:04.826Z,98626.25
2023-08-30T16:29:33.612Z,98642.03
2023-08-30T16:32:02.689Z,98643.97
2023-08-30T16:34:31.512Z,98668.38
2023-08-30T16:37:00.098Z,98640.06
2023-08-30T16:39:28.893Z,98652.97
2023-08-30T16:41:57.950Z,98640.59
2023-08-30T16:44:26.691Z,98623.38
2023-08-30T16:46:56.010Z,98642.44
2023-08-30T16:49:25.280Z,98605.53
2023-08-30T16:51:59.009Z,98614.34
2023-08-30T16:54:28.088Z,98616.88
2023-08-30T16:56:58.093Z,98614.66
2023-08-30T16:59:27.317Z,98617.53
2023-08-30T17:01:56.421Z,98632.22
2023-08-30T17:04:25.773Z,98629.88
2023-08-30T17:07:01.156Z,98621.47
2023-08-30T17:09:35.355Z,98636.28
2023-08-30T17:12:04.890Z,98650.00
2023-08-30T17:14:34.311Z,98649.81
2023-08-30T17:17:03.747Z,98653.78
2023-08-30T17:19:33.229Z,98655.47
2023-08-30T17:22:01.959Z,98642.41
2023-08-30T17:24:33.290Z,98606.31
2023-08-30T17:27:05.989Z,98636.97
2023-08-30T17:29:35.082Z,98637.34
2023-08-30T17:32:04.596Z,98635.28
2023-08-30T17:34:33.329Z,98653.16
2023-08-30T17:37:05.489Z,98628.63
2023-08-30T17:39:34.371Z,98648.00
2023-08-30T17:42:03.136Z,98630.84
2023-08-30T17:44:34.903Z,98653.84
2023-08-30T17:47:05.389Z,98654.25
2023-08-30T17:49:34.301Z,98640.75
2023-08-30T17:52:03.130Z,98664.13
2023-08-30T17:54:35.602Z,98645.63
2023-08-30T17:57:04.661Z,98646.06
2023-08-30T17:59:35.074Z,98596.47
2023-08-30T18:02:04.222Z,98642.63
2023-08-30T18:04:34.977Z,98651.31
2023-08-30T18:07:05.087Z,98634.16
2023-08-30T18:09:33.915Z,98635.72
2023-08-30T18:12:05.309Z,98646.38
2023-08-30T18:14:33.988Z,98642.91
2023-08-30T18:17:02.712Z,98647.31
2023-08-30T18:19:31.509Z,98587.06
2023-08-30T18:22:02.564Z,98630.28
2023-08-30T18:24:32.393Z,98631.25
2023-08-30T18:27:01.130Z,98635.59
2023-08-30T18:29:30.372Z,98634.50
2023-08-30T18:31:59.598Z,98625.59
2023-08-30T18:34:28.855Z,98626.69
2023-08-30T18:36:59.807Z,98578.34
2023-08-30T18:39:28.792Z,98621.56
2023-08-30T18:41:57.709Z,98625.63
2023-08-30T18:44:26.568Z,98630.38
2023-08-30T18:46:55.506Z,98628.97
2023-08-30T18:49:25.207Z,98617.38
2023-08-30T18:51:54.348Z,98641.88
2023-08-30T18:54:25.423Z,98637.69
2023-08-30T18:56:54.568Z,98629.31
2023-08-30T18:59:23.898Z,98621.19
2023-08-30T19:01:52.702Z,98647.94
2023-08-30T19:04:22.302Z,98629.59
2023-08-30T19:06:50.872Z,98642.47
2023-08-30T19:09:20.873Z,98638.41
2023-08-30T19:11:49.552Z,98638.56
2023-08-30T19:14:18.216Z,98570.91
2023-08-30T19:16:47.044Z,98585.88
2023-08-30T19:19:15.971Z,98641.09
2023-08-30T19:21:44.914Z,98591.31
2023-08-30T19:24:13.728Z,98639.13
2023-08-30T19:26:42.817Z,98622.06
2023-08-30T19:29:12.556Z,98635.22
2023-08-30T19:31:41.206Z,98637.19
2023-08-30T19:34:10.032Z,98634.94
2023-08-30T19:36:38.934Z,98638.31
2023-08-30T19:39:09.638Z,98640.41
2023-08-30T19:41:38.418Z,98654.13
2023-08-30T19:44:07.549Z,98665.72
2023-08-30T19:46:36.350Z,98651.47
2023-08-30T19:49:05.366Z,98659.59
2023-08-30T19:51:37.353Z,98666.00
2023-08-30T19:54:06.168Z,98647.53
2023-08-30T19:56:35.194Z,98647.13
2023-08-30T19:59:05.630Z,98615.19
2023-08-30T20:01:38.138Z,98645.59
2023-08-30T20:04:07.037Z,98657.47
2023-08-30T20:06:35.691Z,98649.22
2023-08-30T20:09:04.922Z,98659.56
2023-08-30T20:11:33.652Z,98575.19
2023-08-30T20:14:02.275Z,98651.69
2023-08-30T20:16:31.182Z,98657.72
2023-08-30T20:19:00.052Z,98665.69
2023-08-30T20:21:28.635Z,98657.28
2023-08-30T20:23:57.256Z,98665.94
2023-08-30T20:26:26.228Z,98640.50
2023-08-30T20:28:54.717Z,98649.44
2023-08-30T20:31:23.614Z,98662.56
2023-08-30T20:33:54.401Z,98664.25
2023-08-30T20:36:31.007Z,98650.25
2023-08-30T20:39:07.846Z,98632.91
2023-08-30T20:41:40.380Z,98663.97
2023-08-30T20:44:10.760Z,98638.22
2023-08-30T20:46:39.120Z,98626.97
2023-08-30T20:49:08.674Z,98624.59
2023-08-30T20:51:39.232Z,98683.09
2023-08-30T20:54:07.644Z,98646.56
2023-08-30T20:56:36.002Z,98672.31
2023-08-30T20:59:06.616Z,98685.91
2023-08-30T21:01:35.300Z,98694.31
2023-08-30T21:04:04.604Z,98673.44
2023-08-30T21:06:35.473Z,98596.56
2023-08-30T21:09:04.616Z,98707.00
2023-08-30T21:11:33.565Z,98684.91
2023-08-30T21:14:02.441Z,98701.38
2023-08-30T21:16:31.511Z,98685.69
2023-08-30T21:19:00.058Z,98679.56
2023-08-30T21:21:28.894Z,98695.50
2023-08-30T21:24:00.958Z,98691.44
2023-08-30T21:26:29.752Z,98687.53
2023-08-30T21:28:58.514Z,98696.31
2023-08-30T21:31:27.892Z,98711.16
2023-08-30T21:33:56.715Z,98628.50
2023-08-30T21:36:25.477Z,98703.41
2023-08-30T21:38:57.080Z,98721.31
2023-08-30T21:41:25.633Z,98702.66
2023-08-30T21:43:54.434Z,98731.78
2023-08-30T21:46:23.248Z,98728.78
2023-08-30T21:48:51.893Z,98738.44
2023-08-30T21:51:20.554Z,98744.31
2023-08-30T21:53:49.256Z,98741.75
2023-08-30T21:56:17.877Z,98735.44
2023-08-30T21:58:46.596Z,98741.97
2023-08-30T22:01:15.401Z,98747.00
2023-08-30T22:03:44.186Z,98744.50
2023-08-30T22:06:12.798Z,98736.22
2023-08-30T22:08:41.475Z,98737.47
2023-08-30T22:11:13.736Z,98735.47
2023-08-30T22:13:42.315Z,98725.75
2023-08-30T22:16:11.242Z,98752.44
2023-08-30T22:18:39.996Z,98702.50
2023-08-30T22:21:08.758Z,98751.88
2023-08-30T22:23:37.335Z,98770.91
2023-08-30T22:26:05.921Z,98760.94
2023-08-30T22:28:34.899Z,98753.25
2023-08-30T22:31:03.977Z,98768.19
2023-08-30T22:33:38.073Z,98763.59
2023-08-30T22:36:06.921Z,98769.00
2023-08-30T22:38:35.535Z,98750.91
2023-08-30T22:41:04.796Z,98766.53
2023-08-30T22:43:34.755Z,98714.84
2023-08-30T22:46:05.489Z,98747.50
2023-08-30T22:48:34.135Z,98783.22
2023-08-30T22:51:07.636Z,98729.59
2023-08-30T22:53:39.356Z,98792.16
2023-08-30T22:56:10.676Z,98798.28
2023-08-30T22:58:39.461Z,98769.41
2023-08-30T23:01:09.356Z,98789.16
2023-08-30T23:03:38.190Z,98805.66
2023-08-30T23:06:06.952Z,98794.84
2023-08-30T23:08:36.800Z,98780.28
2023-08-30T23:11:07.578Z,98784.63
2023-08-30T23:13:36.154Z,98805.44
2023-08-30T23:16:07.678Z,98799.22
2023-08-30T23:18:36.325Z,98816.91
2023-08-30T23:21:05.013Z,98752.81
2023-08-30T23:23:33.677Z,98814.88
2023-08-30T23:26:06.240Z,98799.72
2023-08-30T23:28:34.948Z,98811.03
2023-08-30T23:31:07.709Z,98805.28
2023-08-30T23:33:36.462Z,98809.84
2023-08-30T23:36:05.630Z,98811.78
2023-08-30T23:38:35.267Z,98790.63
2023-08-30T23:41:04.154Z,98795.06
2023-08-30T23:43:33.037Z,98803.13
2023-08-30T23:46:05.036Z,98812.38
2023-08-30T23:48:33.961Z,98799.41
2023-08-30T23:51:03.933Z,98811.41
2023-08-30T23:53:33.140Z,98764.38
2023-08-30T23:56:01.813Z,98803.34
2023-08-30T23:58:30.675Z,98825.88
